• Join FlightAware (Why Join?)
  • Login
  • US Flag 
04:45PM EDT


 

Airport Tracker/Info


-or-


 

Live Flight TrackerFlight Track Log ✈ N877PM ✈ 04-May-2014 ✈ KCID - KEAR

Flight Track Log - Related Links

Times and Time Zones

All times are in EDT time to prevent confusion due to time zone crossing. See the N877PM flight status page for this flight to view local times or setup timezone preferences in your user account.

Time Position Orientation Groundspeed Altitude Reporting Facility
EDT Latitude Longitude Course Direction KTS MPH feet Rate Location/Type
11:44AM 41.8583 -91.6611 258° West 213 245 4,000  Level Chicago Center
11:45AM 41.8400 -91.7192 247° West 197 227 7,100 2,760 Climbing Chicago Center
11:46AM 41.8314 -91.7822 260° West 172 198 9,800 2,760 Climbing Chicago Center
11:47AM 41.8239 -91.8469 261° West 154 177 12,900 2,460 Climbing Chicago Center
11:48AM 41.8167 -91.9019 260° West 147 169 15,000 1,920 Climbing Chicago Center
11:49AM 41.8100 -91.9569 261° West 148 170 16,900 1,560 Climbing Chicago Center
11:50AM 41.7998 -92.3267 258° West  Level FlightAware Approximate
11:50AM 41.8033 -92.0161 261° West 158 182 18,300  Level Chicago Center
11:52AM 41.7944 -92.0794 259° West 169 194 20,000 1,620 Climbing Chicago Center
11:53AM 41.7867 -92.1436 261° West 172 198 21,700 1,620 Climbing Chicago Center
11:54AM 41.7792 -92.2075 261° West 173 199 23,400 1,620 Climbing Chicago Center
11:55AM 41.7678 -92.2900 260° West 188 216 25,100 1,500 Climbing Chicago Center
11:56AM 41.7581 -92.3664 260° West 205 236 26,500 1,320 Climbing Chicago Center
11:57AM 41.7489 -92.4447 261° West 210 242 27,900 1,380 Climbing Chicago Center
11:58AM 41.7381 -92.5225 259° West 212 244 29,400 1,320 Climbing Chicago Center
11:59AM 41.7283 -92.6025 261° West 213 245 30,700 1,200 Climbing Chicago Center
11:59AM 41.7217 -92.6517 260° West 215 247 31,300 1,140 Climbing Minneapolis Center
12:00PM 41.7111 -92.7358 260° West 223 257 32,500 1,020 Climbing Minneapolis Center
12:01PM 41.6981 -92.8325 260° West 231 266 33,500 720 Climbing Minneapolis Center
12:02PM 41.6850 -92.9239 259° West 245 282 34,000 240 Climbing Minneapolis Center
12:03PM 41.6725 -93.0261 261° West 266 306 34,000  Level Minneapolis Center
12:05PM 41.6472 -93.2025 259° West 303 349 34,000  Level Chicago Center
12:05PM 41.6422 -93.2475 262° West 300 345 34,000  Level Minneapolis Center
12:06PM 41.6233 -93.3831 259° West 306 352 34,000  Level Minneapolis Center
12:08PM 41.6078 -93.4978 260° West 312 359 34,000  Level Minneapolis Center
12:09PM 41.5931 -93.6097 260° West 312 359 34,000  Level Minneapolis Center
12:10PM 41.5761 -93.7225 259° West 312 359 34,000  Level Minneapolis Center
12:11PM 41.5611 -93.8356 260° West 312 359 34,000  Level Minneapolis Center
12:12PM 41.5450 -93.9489 259° West 312 359 34,000  Level Minneapolis Center
12:13PM 41.5256 -94.0850 259° West 312 359 34,000  Level Minneapolis Center
12:14PM 41.5086 -94.1986 259° West 313 360 34,000  Level Minneapolis Center
12:15PM 41.4922 -94.3058 259° West 313 360 34,000  Level Minneapolis Center
12:16PM 41.4772 -94.4197 260° West 313 360 34,000  Level Minneapolis Center
12:17PM 41.4597 -94.5344 259° West 314 361 34,000  Level Minneapolis Center
12:18PM 41.4392 -94.6722 259° West 316 364 34,000  Level Minneapolis Center
12:19PM 41.4222 -94.7869 259° West 316 364 34,000  Level Minneapolis Center
12:20PM 41.4050 -94.9000 259° West 315 362 34,000  Level Minneapolis Center
12:21PM 41.3875 -95.0133 258° West 315 362 34,000  Level Minneapolis Center
12:22PM 41.3700 -95.1261 258° West 314 361 34,000  Level Minneapolis Center
12:23PM 41.3525 -95.2389 258° West 314 361 34,000  Level Minneapolis Center
12:24PM 41.3342 -95.3536 258° West 315 362 34,000  Level Minneapolis Center
12:25PM 41.3167 -95.4669 258° West 315 362 34,000  Level Minneapolis Center
12:26PM 41.2944 -95.6042 258° West 315 362 34,000  Level Minneapolis Center
12:27PM 41.2772 -95.7208 259° West 315 362 34,000  Level Minneapolis Center
12:28PM 41.2575 -95.8356 257° West 316 364 34,000  Level Minneapolis Center
12:29PM 41.2403 -95.9481 259° West 315 362 34,000  Level Minneapolis Center
12:30PM 41.2217 -96.0611 258° West 314 361 34,000  Level Minneapolis Center
12:31PM 41.2033 -96.1736 258° West 314 361 34,000  Level Minneapolis Center
12:32PM 41.1847 -96.2861 258° West 312 359 34,000  Level Minneapolis Center
12:33PM 41.1661 -96.4031 258° West 311 358 34,000  Level Minneapolis Center
12:34PM 41.1472 -96.5161 258° West 312 359 34,000  Level Minneapolis Center
12:35PM 41.1267 -96.6294 256° West 313 360 34,000  Level Minneapolis Center
12:36PM 41.1047 -96.7647 258° West 313 360 34,000  Level Minneapolis Center
12:37PM 41.0847 -96.8764 257° West 313 360 34,000 -900 Level Minneapolis Center
12:38PM 41.0664 -96.9892 258° West 313 360 32,200 -1,800 Descending Minneapolis Center
12:39PM 41.0475 -97.0986 257° West 309 356 30,400 -1,680 Descending Minneapolis Center
12:40PM 41.0272 -97.2083 256° West 308 354 28,800 -1,680 Descending Minneapolis Center
12:41PM 41.0075 -97.3258 257° West 320 368 27,000 -1,920 Descending Minneapolis Center
12:42PM 40.9842 -97.4658 258° West 331 381 24,900 -1,920 Descending Minneapolis Center
12:44PM 40.9625 -97.5861 257° West 332 382 23,100 -1,800 Descending Minneapolis Center
12:45PM 40.9414 -97.7117 257° West 343 395 21,300 -1,800 Descending Minneapolis Center
12:46PM 40.9169 -97.8386 256° West 351 404 19,400 -1,800 Descending Minneapolis Center
12:47PM 40.8950 -97.9642 257° West 351 404 17,600 -1,860 Descending Minneapolis Center
12:48PM 40.8739 -98.0856 257° West 344 396 15,600 -1,920 Descending Minneapolis Center
12:49PM 40.8572 -98.2031 259° West 331 381 13,700 -2,040 Descending Minneapolis Center
12:50PM 40.8353 -98.3381 258° West 318 366 11,500 -1,980 Descending Minneapolis Center
12:51PM 40.8189 -98.4392 258° West 292 336 9,700 -1,740 Descending Minneapolis Center
12:52PM 40.8039 -98.5322 258° West 275 316 8,000 -1,620 Descending Minneapolis Center
12:53PM 40.7892 -98.6261 258° West 266 306 6,400 -1,440 Descending Minneapolis Center
12:54PM 40.7742 -98.7156 258° West 257 296 5,100 -1,260 Descending Minneapolis Center
12:56PM 40.7396 -98.8771 217° Southwest  Level FlightAware Approximate
01:03PM 40.7167 -99.0000 270° West  Level FlightAware Approximate